NZQN/ZQN METAR and TAF weather

Enter ICAO airport designator
Station Type Date Time Source
NZQN METAR UTC NOAA

Error!


Station Type Date Time Source
NZQN Decoded METAR UTC NOAA

Error!

Station Type Date Time Source
NZQN TAF 2020/02/28 17:03 UTC NOAA

TAF NZQN 281609Z 2817/2911 22010KT 9999 SCT070
BECMG 2822/2900 28015KT
BECMG 2908/2910 22010KT

Example: see airport list